This is the latest recevied weather packets stored in our database for station/object KC9ZAR-13. If no packets are shown the sender has not sent any weather packets the latest 10 day(s).
| Time | Temp. | Humidity | Pressure | Rain* | Wind** | Luminosity | Snow |
|---|---|---|---|---|---|---|---|
| 1778087406 | 13.89° C | 64% | 1012.8 hPa | 0 mm | - | 0 W/m² | - |
| 1778085606 | 13.33° C | 68% | 1012.9 hPa | 0 mm | - | 0 W/m² | - |
| 1778084705 | 13.33° C | 71% | 1012.9 hPa | 0 mm | - | 0 W/m² | - |
| 1778083506 | 12.78° C | 71% | 1012.8 hPa | 0 mm | - | 0 W/m² | - |
| 1778081405 | 12.78° C | 72% | 1012.5 hPa | 0 mm | - | 0 W/m² | - |
| 1778075705 | 10.56° C | 89% | 1011.8 hPa | 0 mm | - | 0 W/m² | - |
| 1778073305 | 10° C | 92% | 1011.5 hPa | 0 mm | - | 0 W/m² | - |
| 1778069106 | 8.89° C | 95% | 1010.9 hPa | 0 mm | - | 0 W/m² | - |
| 1778068804 | 8.89° C | 94% | 1011.1 hPa | 0 mm | - | 0 W/m² | - |
| 1778067605 | 8.89° C | 94% | 1010.9 hPa | 0 mm | - | 0 W/m² | - |
| 1778066705 | 8.33° C | 95% | 1010.9 hPa | 0 mm | - | 0 W/m² | - |
| 1778066405 | 8.33° C | 94% | 1010.9 hPa | 0 mm | - | 0 W/m² | - |
| 1778065805 | 8.33° C | 94% | 1010.2 hPa | 0 mm | - | 0 W/m² | - |
| 1778064605 | 8.33° C | 94% | 1009.9 hPa | 0 mm | - | 0 W/m² | - |
| 1778064304 | 8.33° C | 94% | 1009.8 hPa | 0 mm | - | 0 W/m² | - |
| 1778062505 | 8.33° C | 94% | 1008.9 hPa | 0 mm | - | 0 W/m² | - |
| 1778061605 | 8.33° C | 95% | 1009.2 hPa | 0 mm | - | 0 W/m² | - |
| 1778058005 | 8.33° C | 95% | 1008.5 hPa | 0 mm | - | 0 W/m² | - |
| 1778055905 | 7.78° C | 95% | 1008.1 hPa | 0 mm | - | 0 W/m² | - |
| 1778049904 | 7.78° C | 96% | 1008.1 hPa | 0 mm | - | 0 W/m² | - |
| 1778048405 | 8.33° C | 96% | 1007.6 hPa | 0.51 mm | - | 0 W/m² | - |
| 1778048105 | 8.33° C | 96% | 1007.6 hPa | 0.76 mm | - | 0 W/m² | - |
| 1778046305 | 9.44° C | 96% | 1007.6 hPa | 2.29 mm | - | 0 W/m² | - |
| 1778045105 | 9.44° C | 96% | 1007.1 hPa | 2.29 mm | - | 0 W/m² | - |
| 1778043005 | 9.44° C | 96% | 1007.6 hPa | 3.3 mm | - | 0 W/m² | - |
* Rain latest hour (hover to see other rain measurements)
** Current wind speed in m/s (hover to see current wind gust speed)